PWSweather.com
Personal Weather Stations
Station Observations
IBRABANT12
Leuven, BlandenBE 3052

LeuvenBlandenBE 3052

Lat: 50.8252218, Lon: 4.709682799999996

Elevation: 193

Station Type: Davis Vantage Vue

http://www.weerstationblanden.be

Latest ConditionsUpdated 10:30:16 PM GMT+01:01 Wednesday, Sep 2, 2015
Currently Today's Max Today's Min Today's Average
Temperature 54.6°F12.6°C 65.6°F18.7°C 48.8°F9.3°C 56.6°F13.7°C
Dew Point 53.5°F11.9°C 56.7°F13.7°C 47.8°F8.8°C 52.3°F11.3°C
Winds Calm Calm 8.2 mph WNW13.2 kmh WNW - 2.1 mph 3.4 kmh
Wind Gusts -- 11.0 mph17.7 kmh - -
Humidity 96% 97% 61% 87%
Pressure 29.96 in1014.6 mb 30.03 in1016.9 mb 29.95 in1014.2 mb -
Precipitation - 0.12 in3.0 mm - -
Hour Temp Dew Point Humidity Winds Wind Gusts Pressure Precip Precip Rate Daily Precip Total
10:30 PM 54.6°F12.6°C 53.5°F11.9°C 96% Calm Calm -- 29.96 in1014.6 mb - 0.00 in0.0 mm 0.12 in3.0 mm
10:20 PM 54.7°F12.6°C 53.6°F12.0°C 96% Calm Calm -- 29.96 in1014.6 mb - 0.00 in0.0 mm 0.12 in3.0 mm
10:10 PM 54.8°F12.7°C 53.7°F12.1°C 96% Calm Calm -- 29.96 in1014.6 mb - 0.00 in0.0 mm 0.12 in3.0 mm
10:00 PM 55.0°F12.8°C 53.8°F12.1°C 96% Calm Calm -- 29.96 in1014.6 mb - 0.00 in0.0 mm 0.12 in3.0 mm
09:50 PM 55.1°F12.8°C 54.0°F12.2°C 96% Calm Calm 1.0 mph1.6 kmh 29.97 in1014.9 mb - 0.00 in0.0 mm 0.12 in3.0 mm
09:40 PM 55.2°F12.9°C 53.8°F12.1°C 95% 0.1 mph SW0.2 kmh SW 1.0 mph1.6 kmh 29.97 in1014.9 mb - 0.00 in0.0 mm 0.12 in3.0 mm
09:30 PM 55.2°F12.9°C 53.8°F12.1°C 95% 0.6 mph SW1.0 kmh SW 1.0 mph1.6 kmh 29.97 in1014.9 mb - 0.00 in0.0 mm 0.12 in3.0 mm
09:20 PM 55.7°F13.2°C 54.3°F12.4°C 95% 0.1 mph SSW0.2 kmh SSW 1.0 mph1.6 kmh 29.96 in1014.6 mb - 0.00 in0.0 mm 0.12 in3.0 mm
09:10 PM 55.9°F13.3°C 54.5°F12.5°C 95% Calm Calm -- 29.96 in1014.6 mb - 0.00 in0.0 mm 0.12 in3.0 mm
09:00 PM 56.0°F13.3°C 54.6°F12.6°C 95% Calm Calm -- 29.97 in1014.9 mb - 0.00 in0.0 mm 0.12 in3.0 mm
08:50 PM 56.0°F13.3°C 54.6°F12.6°C 95% Calm Calm -- 29.97 in1014.9 mb - 0.00 in0.0 mm 0.12 in3.0 mm
08:40 PM 56.2°F13.4°C 54.8°F12.7°C 95% 0.7 mph SW1.1 kmh SW 1.0 mph1.6 kmh 29.97 in1014.9 mb - 0.00 in0.0 mm 0.12 in3.0 mm
08:30 PM 56.2°F13.4°C 54.8°F12.7°C 95% Calm Calm -- 29.97 in1014.9 mb - 0.00 in0.0 mm 0.12 in3.0 mm
08:20 PM 56.2°F13.4°C 54.8°F12.7°C 95% 0.7 mph S1.1 kmh S 1.0 mph1.6 kmh 29.97 in1014.9 mb - 0.00 in0.0 mm 0.12 in3.0 mm
08:10 PM 56.2°F13.4°C 54.8°F12.7°C 95% Calm Calm -- 29.97 in1014.9 mb - 0.00 in0.0 mm 0.12 in3.0 mm
08:00 PM 56.2°F13.4°C 54.8°F12.7°C 95% 0.2 mph SW0.3 kmh SW -- 29.97 in1014.9 mb - 0.00 in0.0 mm 0.12 in3.0 mm
07:50 PM 56.2°F13.4°C 54.5°F12.5°C 94% Calm Calm -- 29.96 in1014.6 mb - 0.00 in0.0 mm 0.12 in3.0 mm
07:40 PM 56.3°F13.5°C 54.6°F12.6°C 94% 0.9 mph S1.4 kmh S 2.0 mph3.2 kmh 29.97 in1014.9 mb - 0.00 in0.0 mm 0.12 in3.0 mm
07:30 PM 56.4°F13.6°C 54.7°F12.6°C 94% 1.7 mph SW2.7 kmh SW 2.0 mph3.2 kmh 29.96 in1014.6 mb - 0.00 in0.0 mm 0.12 in3.0 mm
07:20 PM 56.6°F13.7°C 54.6°F12.6°C 93% 0.6 mph SW1.0 kmh SW 1.0 mph1.6 kmh 29.96 in1014.6 mb - 0.00 in0.0 mm 0.12 in3.0 mm
07:10 PM 56.8°F13.8°C 54.8°F12.7°C 93% 1.0 mph S1.6 kmh S 1.0 mph1.6 kmh 29.95 in1014.2 mb - 0.00 in0.0 mm 0.12 in3.0 mm
07:00 PM 56.8°F13.8°C 54.8°F12.7°C 93% 0.4 mph SW0.6 kmh SW 1.0 mph1.6 kmh 29.95 in1014.2 mb - 0.00 in0.0 mm 0.12 in3.0 mm
06:50 PM 56.7°F13.7°C 54.7°F12.6°C 93% Calm Calm -- 29.95 in1014.2 mb - 0.00 in0.0 mm 0.12 in3.0 mm
06:40 PM 56.8°F13.8°C 54.8°F12.7°C 93% 1.1 mph SW1.8 kmh SW 2.0 mph3.2 kmh 29.95 in1014.2 mb - 0.00 in0.0 mm 0.12 in3.0 mm
06:30 PM 56.9°F13.8°C 54.6°F12.6°C 92% Calm Calm -- 29.95 in1014.2 mb - 0.00 in0.0 mm 0.12 in3.0 mm
06:20 PM 56.8°F13.8°C 54.5°F12.5°C 92% Calm Calm -- 29.95 in1014.2 mb - 0.01 in0.3 mm 0.12 in3.0 mm
06:10 PM 56.9°F13.8°C 54.3°F12.4°C 91% 1.3 mph NE2.1 kmh NE 2.0 mph3.2 kmh 29.95 in1014.2 mb - 0.02 in0.5 mm 0.11 in2.8 mm
06:00 PM 56.8°F13.8°C 53.9°F12.2°C 90% 2.9 mph WNW4.7 kmh WNW 3.0 mph4.8 kmh 29.96 in1014.6 mb - 0.02 in0.5 mm 0.09 in2.3 mm
05:50 PM 57.1°F13.9°C 53.9°F12.2°C 89% 5.3 mph SW8.5 kmh SW 6.0 mph9.7 kmh 29.97 in1014.9 mb - 0.01 in0.3 mm 0.08 in2.0 mm
05:40 PM 57.7°F14.3°C 53.9°F12.2°C 87% 3.9 mph SW6.3 kmh SW 6.0 mph9.7 kmh 29.96 in1014.6 mb - 0.02 in0.5 mm 0.08 in2.0 mm
05:30 PM 58.3°F14.6°C 53.2°F11.8°C 83% 1.3 mph SSW2.1 kmh SSW 1.0 mph1.6 kmh 29.96 in1014.6 mb - 0.03 in0.8 mm 0.06 in1.5 mm
05:20 PM 60.1°F15.6°C 54.6°F12.6°C 82% 3.9 mph WNW6.3 kmh WNW 5.0 mph8.0 kmh 29.96 in1014.6 mb - 0.02 in0.5 mm 0.04 in1.0 mm
05:10 PM 62.1°F16.7°C 53.3°F11.8°C 73% 5.1 mph W8.2 kmh W 6.0 mph9.7 kmh 29.96 in1014.6 mb - 0.00 in0.0 mm 0.01 in0.3 mm
05:00 PM 62.9°F17.2°C 52.6°F11.4°C 69% 3.7 mph W6.0 kmh W 6.0 mph9.7 kmh 29.95 in1014.2 mb - 0.00 in0.0 mm 0.01 in0.3 mm
04:50 PM 63.4°F17.4°C 51.9°F11.1°C 66% 3.9 mph NW6.3 kmh NW 5.0 mph8.0 kmh 29.95 in1014.2 mb - 0.00 in0.0 mm 0.01 in0.3 mm
04:40 PM 64.1°F17.8°C 51.2°F10.7°C 63% 2.7 mph WSW4.3 kmh WSW 5.0 mph8.0 kmh 29.95 in1014.2 mb - 0.00 in0.0 mm 0.01 in0.3 mm
04:30 PM 65.4°F18.6°C 52.1°F11.2°C 62% 2.4 mph NW3.9 kmh NW 4.0 mph6.4 kmh 29.95 in1014.2 mb - 0.00 in0.0 mm 0.01 in0.3 mm
04:20 PM 64.7°F18.2°C 51.4°F10.8°C 62% 1.3 mph SW2.1 kmh SW 3.0 mph4.8 kmh 29.95 in1014.2 mb - 0.00 in0.0 mm 0.01 in0.3 mm
04:10 PM 64.9°F18.3°C 51.2°F10.7°C 61% 3.1 mph NNE5.0 kmh NNE 7.0 mph11.3 kmh 29.95 in1014.2 mb - 0.00 in0.0 mm 0.01 in0.3 mm
04:00 PM 64.8°F18.2°C 51.4°F10.8°C 62% 0.7 mph WNW1.1 kmh WNW 1.0 mph1.6 kmh 29.95 in1014.2 mb - 0.00 in0.0 mm 0.01 in0.3 mm
03:50 PM 64.2°F17.9°C 52.2°F11.2°C 65% 2.0 mph WNW3.2 kmh WNW 5.0 mph8.0 kmh 29.95 in1014.2 mb - 0.00 in0.0 mm 0.01 in0.3 mm
03:40 PM 63.6°F17.6°C 51.2°F10.7°C 64% 2.0 mph NNE3.2 kmh NNE 3.0 mph4.8 kmh 29.95 in1014.2 mb - 0.00 in0.0 mm 0.01 in0.3 mm
03:30 PM 63.8°F17.7°C 51.4°F10.8°C 64% 1.7 mph NNW2.7 kmh NNW 4.0 mph6.4 kmh 29.95 in1014.2 mb - 0.00 in0.0 mm 0.01 in0.3 mm
03:20 PM 64.0°F17.8°C 51.1°F10.6°C 63% 1.0 mph W1.6 kmh W 3.0 mph4.8 kmh 29.96 in1014.6 mb - 0.00 in0.0 mm 0.01 in0.3 mm
03:10 PM 64.0°F17.8°C 50.7°F10.4°C 62% 3.1 mph NW5.0 kmh NW 3.0 mph4.8 kmh 29.95 in1014.2 mb - 0.00 in0.0 mm 0.01 in0.3 mm
03:00 PM 63.8°F17.7°C 50.5°F10.3°C 62% 3.2 mph WNW5.1 kmh WNW 5.0 mph8.0 kmh 29.96 in1014.6 mb - 0.00 in0.0 mm 0.01 in0.3 mm
02:50 PM 63.7°F17.6°C 52.9°F11.6°C 68% 4.6 mph WSW7.4 kmh WSW 6.0 mph9.7 kmh 29.96 in1014.6 mb - 0.00 in0.0 mm 0.01 in0.3 mm
02:40 PM 63.7°F17.6°C 52.1°F11.2°C 66% 5.5 mph SW8.9 kmh SW 8.0 mph12.9 kmh 29.96 in1014.6 mb - 0.00 in0.0 mm 0.01 in0.3 mm
02:30 PM 63.7°F17.6°C 52.5°F11.4°C 67% 4.8 mph W7.7 kmh W 6.0 mph9.7 kmh 29.96 in1014.6 mb - 0.00 in0.0 mm 0.01 in0.3 mm
02:20 PM 63.9°F17.7°C 51.5°F10.8°C 64% 7.4 mph WSW11.9 kmh WSW 9.0 mph14.5 kmh 29.96 in1014.6 mb - 0.00 in0.0 mm 0.01 in0.3 mm
02:10 PM 63.9°F17.7°C 52.3°F11.3°C 66% 7.2 mph SW11.6 kmh SW 9.0 mph14.5 kmh 29.96 in1014.6 mb - 0.00 in0.0 mm 0.01 in0.3 mm
02:00 PM 64.6°F18.1°C 51.8°F11.0°C 63% 6.3 mph SW10.1 kmh SW 10.0 mph16.1 kmh 29.96 in1014.6 mb - 0.00 in0.0 mm 0.01 in0.3 mm
01:50 PM 65.2°F18.4°C 52.7°F11.5°C 64% 5.4 mph WSW8.7 kmh WSW 6.0 mph9.7 kmh 29.96 in1014.6 mb - 0.00 in0.0 mm 0.01 in0.3 mm
01:40 PM 65.6°F18.7°C 52.2°F11.2°C 62% 6.1 mph W9.8 kmh W 11.0 mph17.7 kmh 29.96 in1014.6 mb - 0.00 in0.0 mm 0.01 in0.3 mm
01:30 PM 64.9°F18.3°C 52.4°F11.3°C 64% 5.0 mph WSW8.0 kmh WSW 8.0 mph12.9 kmh 29.96 in1014.6 mb - 0.00 in0.0 mm 0.01 in0.3 mm
01:20 PM 65.0°F18.3°C 51.7°F10.9°C 62% 8.2 mph WNW13.2 kmh WNW 10.0 mph16.1 kmh 29.96 in1014.6 mb - 0.00 in0.0 mm 0.01 in0.3 mm
01:10 PM 65.2°F18.4°C 52.7°F11.5°C 64% 6.7 mph SW10.8 kmh SW 8.0 mph12.9 kmh 29.96 in1014.6 mb - 0.00 in0.0 mm 0.01 in0.3 mm
01:00 PM 64.9°F18.3°C 52.0°F11.1°C 63% 6.5 mph SW10.5 kmh SW 10.0 mph16.1 kmh 29.96 in1014.6 mb - 0.00 in0.0 mm 0.01 in0.3 mm
12:50 PM 64.4°F18.0°C 53.2°F11.8°C 67% 4.9 mph W7.9 kmh W 9.0 mph14.5 kmh 29.96 in1014.6 mb - 0.00 in0.0 mm 0.01 in0.3 mm
12:40 PM 64.1°F17.8°C 52.9°F11.6°C 67% 6.0 mph SW9.7 kmh SW 8.0 mph12.9 kmh 29.96 in1014.6 mb - 0.00 in0.0 mm 0.01 in0.3 mm
12:30 PM 64.3°F17.9°C 53.1°F11.7°C 67% 5.3 mph NW8.5 kmh NW 7.0 mph11.3 kmh 29.97 in1014.9 mb - 0.00 in0.0 mm 0.01 in0.3 mm
12:20 PM 64.2°F17.9°C 53.4°F11.9°C 68% 3.3 mph WSW5.3 kmh WSW 6.0 mph9.7 kmh 29.97 in1014.9 mb - 0.00 in0.0 mm 0.01 in0.3 mm
12:10 PM 63.7°F17.6°C 53.7°F12.1°C 70% 4.1 mph SW6.6 kmh SW 5.0 mph8.0 kmh 29.97 in1014.9 mb - 0.00 in0.0 mm 0.01 in0.3 mm
12:00 PM 63.0°F17.2°C 53.9°F12.2°C 72% 4.2 mph WSW6.8 kmh WSW 7.0 mph11.3 kmh 29.97 in1014.9 mb - 0.00 in0.0 mm 0.01 in0.3 mm
11:50 AM 62.9°F17.2°C 53.7°F12.1°C 72% 6.1 mph WSW9.8 kmh WSW 11.0 mph17.7 kmh 29.97 in1014.9 mb - 0.00 in0.0 mm 0.01 in0.3 mm
11:40 AM 62.4°F16.9°C 54.0°F12.2°C 74% 7.0 mph SW11.3 kmh SW 8.0 mph12.9 kmh 29.98 in1015.2 mb - 0.00 in0.0 mm 0.01 in0.3 mm
11:30 AM 62.3°F16.8°C 53.5°F11.9°C 73% 6.8 mph SW10.9 kmh SW 10.0 mph16.1 kmh 29.98 in1015.2 mb - 0.00 in0.0 mm 0.01 in0.3 mm
11:20 AM 62.2°F16.8°C 55.6°F13.1°C 79% 5.1 mph SW8.2 kmh SW 7.0 mph11.3 kmh 29.98 in1015.2 mb - 0.00 in0.0 mm 0.01 in0.3 mm
11:10 AM 61.6°F16.4°C 56.4°F13.6°C 83% 4.3 mph S6.9 kmh S 6.0 mph9.7 kmh 29.98 in1015.2 mb - 0.00 in0.0 mm 0.01 in0.3 mm
11:00 AM 60.1°F15.6°C 55.2°F12.9°C 84% 2.5 mph SSW4.0 kmh SSW 3.0 mph4.8 kmh 29.98 in1015.2 mb - 0.00 in0.0 mm 0.01 in0.3 mm
10:50 AM 59.7°F15.4°C 55.2°F12.9°C 85% 4.6 mph SW7.4 kmh SW 5.0 mph8.0 kmh 29.99 in1015.6 mb - 0.00 in0.0 mm 0.01 in0.3 mm
10:40 AM 60.1°F15.6°C 55.3°F12.9°C 84% 5.5 mph WNW8.9 kmh WNW 9.0 mph14.5 kmh 29.99 in1015.6 mb - 0.00 in0.0 mm 0.01 in0.3 mm
10:30 AM 61.1°F16.2°C 55.6°F13.1°C 82% 6.0 mph WSW9.7 kmh WSW 10.0 mph16.1 kmh 29.99 in1015.6 mb - 0.00 in0.0 mm 0.01 in0.3 mm
10:10 AM 61.2°F16.2°C 56.7°F13.7°C 85% 3.6 mph SW5.8 kmh SW 7.0 mph11.3 kmh 29.99 in1015.6 mb - 0.00 in0.0 mm 0.01 in0.3 mm
10:00 AM 60.9°F16.1°C 56.4°F13.6°C 85% 5.4 mph S8.7 kmh S 7.0 mph11.3 kmh 29.99 in1015.6 mb - 0.00 in0.0 mm 0.01 in0.3 mm
09:50 AM 60.3°F15.7°C 56.7°F13.7°C 88% 4.6 mph SW7.4 kmh SW 8.0 mph12.9 kmh 29.99 in1015.6 mb - 0.00 in0.0 mm 0.01 in0.3 mm
09:40 AM 59.2°F15.1°C 55.7°F13.2°C 88% 4.7 mph SSW7.6 kmh SSW 7.0 mph11.3 kmh 29.99 in1015.6 mb - 0.00 in0.0 mm 0.01 in0.3 mm
09:30 AM 59.0°F15.0°C 55.8°F13.2°C 89% 3.4 mph S5.5 kmh S 5.0 mph8.0 kmh 29.99 in1015.6 mb - 0.00 in0.0 mm 0.01 in0.3 mm
09:20 AM 58.5°F14.7°C 55.5°F13.1°C 90% 3.0 mph SW4.8 kmh SW 6.0 mph9.7 kmh 29.99 in1015.6 mb - 0.00 in0.0 mm 0.01 in0.3 mm
09:10 AM 57.8°F14.3°C 54.9°F12.7°C 90% 4.5 mph SE7.2 kmh SE 7.0 mph11.3 kmh 29.99 in1015.6 mb - 0.00 in0.0 mm 0.01 in0.3 mm
09:00 AM 57.2°F14.0°C 54.9°F12.7°C 92% 3.3 mph SW5.3 kmh SW 5.0 mph8.0 kmh 29.99 in1015.6 mb - 0.00 in0.0 mm 0.01 in0.3 mm
08:50 AM 56.4°F13.6°C 54.1°F12.3°C 92% 7.1 mph WSW11.4 kmh WSW 10.0 mph16.1 kmh 29.99 in1015.6 mb - 0.00 in0.0 mm 0.01 in0.3 mm
08:40 AM 55.9°F13.3°C 54.2°F12.3°C 94% 2.7 mph SW4.3 kmh SW 3.0 mph4.8 kmh 29.99 in1015.6 mb - 0.00 in0.0 mm 0.01 in0.3 mm
08:30 AM 55.3°F12.9°C 53.6°F12.0°C 94% 3.2 mph SSW5.1 kmh SSW 4.0 mph6.4 kmh 29.99 in1015.6 mb - 0.00 in0.0 mm 0.01 in0.3 mm
08:20 AM 55.4°F13.0°C 53.7°F12.1°C 94% 1.9 mph SW3.1 kmh SW 3.0 mph4.8 kmh 29.99 in1015.6 mb - 0.00 in0.0 mm 0.01 in0.3 mm
08:10 AM 55.3°F12.9°C 53.9°F12.2°C 95% 2.1 mph SW3.4 kmh SW 3.0 mph4.8 kmh 29.99 in1015.6 mb - 0.00 in0.0 mm 0.01 in0.3 mm
08:00 AM 54.7°F12.6°C 53.3°F11.8°C 95% 1.6 mph SW2.6 kmh SW 2.0 mph3.2 kmh 29.99 in1015.6 mb - 0.00 in0.0 mm 0.01 in0.3 mm
07:50 AM 54.2°F12.3°C 53.1°F11.7°C 96% 2.7 mph SSW4.3 kmh SSW 3.0 mph4.8 kmh 29.99 in1015.6 mb - 0.00 in0.0 mm 0.01 in0.3 mm
07:40 AM 53.6°F12.0°C 52.5°F11.4°C 96% 2.0 mph SSE3.2 kmh SSE 4.0 mph6.4 kmh 29.99 in1015.6 mb - 0.00 in0.0 mm 0.01 in0.3 mm
07:30 AM 53.2°F11.8°C 52.1°F11.2°C 96% 2.0 mph SSW3.2 kmh SSW 3.0 mph4.8 kmh 29.99 in1015.6 mb - 0.00 in0.0 mm 0.01 in0.3 mm
07:20 AM 52.8°F11.6°C 52.0°F11.1°C 97% 0.2 mph SSW0.3 kmh SSW 2.0 mph3.2 kmh 29.99 in1015.6 mb - 0.00 in0.0 mm 0.01 in0.3 mm
07:10 AM 51.7°F10.9°C 50.9°F10.5°C 97% 0.8 mph SW1.3 kmh SW 2.0 mph3.2 kmh 29.99 in1015.6 mb - 0.00 in0.0 mm 0.01 in0.3 mm
07:00 AM 51.0°F10.6°C 50.1°F10.1°C 97% 0.2 mph SW0.3 kmh SW 1.0 mph1.6 kmh 29.99 in1015.6 mb - 0.00 in0.0 mm 0.01 in0.3 mm
06:50 AM 50.4°F10.2°C 49.6°F9.8°C 97% Calm Calm -- 29.98 in1015.2 mb - 0.00 in0.0 mm 0.01 in0.3 mm
06:40 AM 50.0°F10.0°C 49.2°F9.6°C 97% 0.1 mph S0.2 kmh S 1.0 mph1.6 kmh 29.98 in1015.2 mb - 0.00 in0.0 mm 0.01 in0.3 mm
06:30 AM 49.9°F9.9°C 49.1°F9.5°C 97% Calm Calm -- 29.98 in1015.2 mb - 0.00 in0.0 mm 0.01 in0.3 mm
06:20 AM 49.6°F9.8°C 48.8°F9.3°C 97% Calm Calm -- 29.99 in1015.6 mb - 0.00 in0.0 mm 0.01 in0.3 mm
06:10 AM 49.4°F9.7°C 48.6°F9.2°C 97% 0.9 mph S1.4 kmh S 1.0 mph1.6 kmh 29.99 in1015.6 mb - 0.00 in0.0 mm 0.01 in0.3 mm
06:00 AM 49.1°F9.5°C 48.3°F9.1°C 97% Calm Calm -- 29.99 in1015.6 mb - 0.00 in0.0 mm 0.01 in0.3 mm
05:50 AM 48.8°F9.3°C 48.0°F8.9°C 97% Calm Calm -- 29.99 in1015.6 mb - 0.00 in0.0 mm 0.01 in0.3 mm
05:40 AM 48.9°F9.4°C 47.8°F8.8°C 96% Calm Calm -- 29.99 in1015.6 mb - 0.00 in0.0 mm 0.01 in0.3 mm
05:30 AM 49.6°F9.8°C 48.8°F9.3°C 97% Calm Calm -- 29.99 in1015.6 mb - 0.00 in0.0 mm 0.01 in0.3 mm
05:20 AM 50.0°F10.0°C 49.2°F9.6°C 97% Calm Calm -- 29.99 in1015.6 mb - 0.00 in0.0 mm 0.01 in0.3 mm
05:10 AM 50.0°F10.0°C 49.2°F9.6°C 97% 1.0 mph S1.6 kmh S 1.0 mph1.6 kmh 29.99 in1015.6 mb - 0.00 in0.0 mm 0.01 in0.3 mm
05:00 AM 50.1°F10.1°C 49.0°F9.4°C 96% Calm Calm -- 29.99 in1015.6 mb - 0.00 in0.0 mm 0.01 in0.3 mm
04:50 AM 50.5°F10.3°C 49.7°F9.8°C 97% Calm Calm -- 29.99 in1015.6 mb - 0.00 in0.0 mm 0.01 in0.3 mm
04:40 AM 50.6°F10.3°C 49.8°F9.9°C 97% 0.9 mph S1.4 kmh S 1.0 mph1.6 kmh 29.99 in1015.6 mb - 0.00 in0.0 mm 0.01 in0.3 mm
04:30 AM 50.9°F10.5°C 50.1°F10.1°C 97% 1.0 mph S1.6 kmh S 1.0 mph1.6 kmh 30.00 in1015.9 mb - 0.00 in0.0 mm 0.01 in0.3 mm
04:20 AM 50.9°F10.5°C 50.1°F10.1°C 97% Calm Calm -- 30.00 in1015.9 mb - 0.00 in0.0 mm 0.01 in0.3 mm
04:10 AM 50.9°F10.5°C 50.1°F10.1°C 97% Calm Calm -- 30.00 in1015.9 mb - 0.00 in0.0 mm 0.01 in0.3 mm
04:00 AM 51.0°F10.6°C 50.2°F10.1°C 97% Calm Calm -- 30.00 in1015.9 mb - 0.00 in0.0 mm 0.01 in0.3 mm
03:50 AM 50.9°F10.5°C 50.1°F10.1°C 97% 1.0 mph SSW1.6 kmh SSW 2.0 mph3.2 kmh 30.00 in1015.9 mb - 0.00 in0.0 mm 0.01 in0.3 mm
03:40 AM 50.6°F10.3°C 49.8°F9.9°C 97% Calm Calm -- 30.01 in1016.3 mb - 0.00 in0.0 mm 0.01 in0.3 mm
03:30 AM 50.4°F10.2°C 49.6°F9.8°C 97% 0.7 mph S1.1 kmh S 1.0 mph1.6 kmh 30.01 in1016.3 mb - 0.00 in0.0 mm 0.01 in0.3 mm
03:20 AM 50.1°F10.1°C 49.3°F9.6°C 97% Calm Calm -- 30.01 in1016.3 mb - 0.00 in0.0 mm 0.01 in0.3 mm
03:10 AM 50.0°F10.0°C 49.1°F9.5°C 97% 0.2 mph SSW0.3 kmh SSW 1.0 mph1.6 kmh 30.01 in1016.3 mb - 0.00 in0.0 mm 0.01 in0.3 mm
03:00 AM 49.9°F9.9°C 49.1°F9.5°C 97% Calm Calm -- 30.01 in1016.3 mb - 0.00 in0.0 mm 0.01 in0.3 mm
02:50 AM 50.1°F10.1°C 49.3°F9.6°C 97% Calm Calm -- 30.01 in1016.3 mb - 0.00 in0.0 mm 0.01 in0.3 mm
02:40 AM 50.1°F10.1°C 49.3°F9.6°C 97% Calm Calm -- 30.01 in1016.3 mb - 0.00 in0.0 mm 0.01 in0.3 mm
02:30 AM 49.9°F9.9°C 49.1°F9.5°C 97% Calm Calm -- 30.02 in1016.6 mb - 0.00 in0.0 mm 0.01 in0.3 mm
02:20 AM 49.9°F9.9°C 48.8°F9.3°C 96% Calm Calm -- 30.02 in1016.6 mb - 0.00 in0.0 mm 0.01 in0.3 mm
02:10 AM 50.1°F10.1°C 49.0°F9.4°C 96% Calm Calm -- 30.02 in1016.6 mb - 0.00 in0.0 mm 0.01 in0.3 mm
02:00 AM 50.2°F10.1°C 49.1°F9.5°C 96% Calm Calm -- 30.02 in1016.6 mb - 0.00 in0.0 mm 0.01 in0.3 mm
01:50 AM 50.4°F10.2°C 49.3°F9.6°C 96% Calm Calm -- 30.02 in1016.6 mb - 0.00 in0.0 mm 0.01 in0.3 mm
01:40 AM 50.5°F10.3°C 49.4°F9.7°C 96% Calm Calm -- 30.02 in1016.6 mb - 0.00 in0.0 mm 0.01 in0.3 mm
01:30 AM 50.5°F10.3°C 49.4°F9.7°C 96% Calm Calm -- 30.02 in1016.6 mb - 0.00 in0.0 mm 0.01 in0.3 mm
01:20 AM 50.5°F10.3°C 49.4°F9.7°C 96% Calm Calm -- 30.02 in1016.6 mb - 0.00 in0.0 mm 0.01 in0.3 mm
01:10 AM 50.8°F10.4°C 49.7°F9.8°C 96% Calm Calm -- 30.02 in1016.6 mb - 0.00 in0.0 mm 0.01 in0.3 mm
01:00 AM 51.2°F10.7°C 50.1°F10.1°C 96% Calm Calm -- 30.03 in1016.9 mb - 0.00 in0.0 mm 0.01 in0.3 mm
12:50 AM 51.4°F10.8°C 50.3°F10.2°C 96% Calm Calm -- 30.03 in1016.9 mb - 0.00 in0.0 mm 0.01 in0.3 mm
12:40 AM 51.5°F10.8°C 50.4°F10.2°C 96% Calm Calm -- 30.02 in1016.6 mb - 0.00 in0.0 mm 0.01 in0.3 mm
12:30 AM 51.7°F10.9°C 50.6°F10.3°C 96% Calm Calm -- 30.03 in1016.9 mb - 0.00 in0.0 mm 0.01 in0.3 mm
12:20 AM 51.6°F10.9°C 50.5°F10.3°C 96% Calm Calm -- 30.03 in1016.9 mb - 0.00 in0.0 mm 0.01 in0.3 mm
12:10 AM 51.4°F10.8°C 50.3°F10.2°C 96% Calm Calm 1.0 mph1.6 kmh 30.03 in1016.9 mb - 0.00 in0.0 mm 0.01 in0.3 mm
12:00 AM 51.2°F10.7°C 50.1°F10.1°C 96% Calm Calm -- 30.03 in1016.9 mb - 0.01 in0.3 mm 0.01 in0.3 mm